Fort Myers, FL (33919)

11:11 AM EDT on August 27, 2016 (GMT -0400)
Heritage Cove | | Change Station

Elev 9 ft 26.54 °N, 81.91 °W | Updated 7 minutes ago

Mostly Cloudy
Mostly Cloudy
87.4 °F
Feels Like 105 °F
N
2.0
Wind Variable Wind from NE
Gusts 5.0 mph

Today
High -- | Low -- °F
--% Chance of Precip.
Yesterday
High -- | Low -- °F
Precip. -- in
Pressure 29.95 in
Visibility 10.0 miles
Clouds Few 1800 ft
Scattered Clouds 2300 ft
Mostly Cloudy 4700 ft
Heat Index 105 °F
Dew Point 81 °F
Humidity 81%
Rainfall 0.00 in
Snow Depth Not available.
7:05 AM 7:52 PM
Waning Crescent, 24% visible
METAR KFMY 271453Z 08009KT 10SM FEW018 SCT023 BKN047 29/25 A2994 RMK AO2 SLP140 T02940250 50001
Pressure 29.95 in
Visibility 10.0 miles
Clouds Few 1800 ft
Scattered Clouds 2300 ft
Mostly Cloudy 4700 ft
Heat Index 105 °F
Dew Point 81 °F
Humidity 81%
Rainfall 0.00 in
Snow Depth Not available.
7:05 AM 7:52 PM
Waning Crescent, 24% visible
METAR KFMY 271453Z 08009KT 10SM FEW018 SCT023 BKN047 29/25 A2994 RMK AO2 SLP140 T02940250 50001

10-Day Weather Forecast

Almanac

Astronomy

Aug. 27, 2016 Rise Set
Actual Time
Civil Twilight
Nautical Twilight
Astronomical Twilight
Moon
Length of Visible Light
Length of Day
Tomorrow will be .
, % of the Moon is Illuminated

Today's Extremes

State Highs State Lows

Community

WunderPhotos

Upload Photos

1,935,354 photos uploaded!

WunderBlog® & News

Nearby

Air Quality

  Air Quality AQ Index Pollutant
Not available.

Snow Depth

Station Depth Elevation

Earthquake Activity

City Distance Mag. Time & Date
Minimum magnitude displayed is 2.5.

Coastal Water Temperatures

Place Temperature

Stations

Nearby Weather Stations

Station Location Temp. Windchill Dew Point Humidity Wind Precip. Elev Updated Type
                   

Watches & Warnings

There are currently no watches in effect.